Time;durP1;ratioP1;P1;durP2;ratioP2;P2;SDS_P1;SDS_P2;PMS_P1;PMS_P2;Temp;Humidity;BMP_temperature;BMP_pressure;BME280_temperature;BME280_humidity;BME280_pressure;Samples;Min_cycle;Max_cycle;Signal;HPM_P1;HPM_P2
2023/07/11 00:00:52;;;;;;;2.72;1.40;;;;;;;22.72;54.82;100062.09;5111765;28;20095;-80
2023/07/11 00:03:19;;;;;;;4.90;1.48;;;;;;;22.74;54.55;100054.72;5110353;28;20048;-80
2023/07/11 00:06:08;;;;;;;6.90;1.35;;;;;;;22.69;53.38;100047.13;5111574;28;20173;-81
2023/07/11 00:08:38;;;;;;;4.63;1.70;;;;;;;22.76;55.04;100050.00;5111328;28;20055;-80
2023/07/11 00:11:10;;;;;;;3.60;1.35;;;;;;;22.74;54.26;100050.19;5111042;28;20113;-81
2023/07/11 00:13:39;;;;;;;5.90;1.52;;;;;;;22.77;54.86;100046.34;5110071;28;20120;-80
2023/07/11 00:16:09;;;;;;;4.20;1.55;;;;;;;22.75;54.25;100049.19;5111449;28;20131;-80
2023/07/11 00:18:37;;;;;;;3.75;1.20;;;;;;;22.76;54.62;100037.44;5111213;28;20056;-81
2023/07/11 00:21:04;;;;;;;3.05;1.55;;;;;;;22.76;55.11;100040.13;5110983;28;20113;-80
2023/07/11 00:23:31;;;;;;;5.55;1.40;;;;;;;22.74;54.75;100039.47;5111113;28;20071;-79
2023/07/11 00:25:58;;;;;;;6.70;1.83;;;;;;;22.73;55.03;100034.25;5110011;28;20051;-80
2023/07/11 00:28:24;;;;;;;5.35;1.73;;;;;;;22.74;54.95;100033.25;5110054;28;20050;-80
2023/07/11 00:30:51;;;;;;;4.40;1.45;;;;;;;22.73;55.00;100036.94;5110943;28;20126;-80
2023/07/11 00:33:18;;;;;;;3.53;1.20;;;;;;;22.72;55.31;100028.03;5111271;28;20079;-81
2023/07/11 00:35:49;;;;;;;2.58;1.40;;;;;;;22.72;54.97;100028.03;5191497;22;20088;-79
2023/07/11 00:38:15;;;;;;;5.82;1.23;;;;;;;22.73;55.14;100023.50;5111785;28;20425;-79
2023/07/11 00:40:43;;;;;;;4.68;1.60;;;;;;;22.73;55.52;100021.66;5110710;28;20040;-80
2023/07/11 00:43:15;;;;;;;2.88;1.67;;;;;;;22.74;55.82;100027.88;5111400;28;20039;-79
2023/07/11 00:46:06;;;;;;;4.90;1.58;;;;;;;22.69;53.95;100017.59;5111002;28;20054;-80
2023/07/11 00:48:37;;;;;;;5.07;1.55;;;;;;;22.74;55.50;100017.13;5109563;28;20052;-80
2023/07/11 00:51:07;;;;;;;4.32;1.80;;;;;;;22.72;55.07;100017.28;5107792;28;20052;-81
2023/07/11 00:53:34;;;;;;;4.30;1.58;;;;;;;22.73;55.46;100018.16;5097790;28;20054;-79
2023/07/11 00:56:05;;;;;;;5.07;1.55;;;;;;;22.70;54.96;100010.41;5100040;28;20100;-80
2023/07/11 00:58:35;;;;;;;2.63;1.25;;;;;;;22.69;55.37;100003.38;5090716;28;20051;-79
2023/07/11 01:01:02;;;;;;;4.78;1.38;;;;;;;22.68;55.38;99999.00;5090623;28;20079;-80
2023/07/11 01:03:29;;;;;;;4.82;1.48;;;;;;;22.65;55.08;100001.00;5091878;28;20489;-80
2023/07/11 01:05:57;;;;;;;7.30;1.85;;;;;;;22.65;55.49;100008.19;5090789;28;20143;-80
2023/07/11 01:08:24;;;;;;;2.35;1.17;;;;;;;22.63;55.63;99999.47;5090381;28;20079;-80
2023/07/11 01:10:51;;;;;;;8.93;1.98;;;;;;;22.61;55.48;99998.81;5090687;28;20095;-80
2023/07/11 01:13:17;;;;;;;5.90;2.03;;;;;;;22.60;55.64;99997.13;5104554;28;20054;-79
2023/07/11 01:15:44;;;;;;;3.03;1.48;;;;;;;22.60;56.13;99994.44;5110745;28;20101;-79
2023/07/11 01:18:11;;;;;;;4.80;1.27;;;;;;;22.60;56.20;99994.44;5109280;28;20059;-80
2023/07/11 01:20:37;;;;;;;4.30;1.40;;;;;;;22.59;55.91;99987.38;5110980;28;20052;-80
2023/07/11 01:23:04;;;;;;;3.70;1.58;;;;;;;22.59;56.13;99987.38;5101091;28;20149;-80
2023/07/11 01:25:31;;;;;;;5.10;1.50;;;;;;;22.57;55.90;99987.53;5091242;28;20066;-80
2023/07/11 01:27:58;;;;;;;5.13;1.50;;;;;;;22.58;56.22;99985.72;5090435;28;20051;-80
2023/07/11 01:30:25;;;;;;;3.97;1.42;;;;;;;22.57;56.23;99990.22;5089101;28;20097;-80
2023/07/11 01:32:52;;;;;;;6.82;1.95;;;;;;;22.57;55.86;99984.03;5094962;28;20035;-80
2023/07/11 01:35:18;;;;;;;6.65;1.67;;;;;;;22.55;56.14;99983.34;5112521;28;20047;-81
2023/07/11 01:37:45;;;;;;;4.18;1.60;;;;;;;22.54;56.44;99978.97;5114503;28;20043;-79
2023/07/11 01:40:12;;;;;;;6.75;1.95;;;;;;;22.53;56.50;99980.78;5114494;28;20134;-80
2023/07/11 01:42:40;;;;;;;3.72;1.63;;;;;;;22.52;55.99;99976.44;5114156;28;20422;-81
2023/07/11 01:45:09;;;;;;;4.88;1.70;;;;;;;22.48;56.11;99970.56;5093861;28;20376;-80
2023/07/11 01:47:36;;;;;;;3.25;1.88;;;;;;;22.47;56.45;99974.22;5092794;28;20048;-80
2023/07/11 01:50:03;;;;;;;4.85;1.30;;;;;;;22.45;56.73;99973.56;5093802;28;20361;-80
2023/07/11 01:52:30;;;;;;;4.38;1.73;;;;;;;22.44;56.40;99966.50;5094057;28;20047;-79
2023/07/11 01:54:56;;;;;;;2.83;1.60;;;;;;;22.42;56.56;99976.53;5109847;28;20048;-80
2023/07/11 01:57:23;;;;;;;4.10;1.42;;;;;;;22.41;56.85;99969.50;5113958;28;20043;-80
2023/07/11 01:59:50;;;;;;;3.75;1.42;;;;;;;22.39;56.89;99966.97;5113975;28;20052;-80
2023/07/11 02:02:16;;;;;;;5.65;1.88;;;;;;;22.39;56.88;99974.22;5114248;28;20043;-80
2023/07/11 02:04:44;;;;;;;5.97;1.70;;;;;;;22.38;56.98;99967.13;5102152;28;20098;-80
2023/07/11 02:07:11;;;;;;;4.90;1.65;;;;;;;22.37;57.01;99968.13;5093592;28;20055;-79
2023/07/11 02:09:38;;;;;;;7.32;1.52;;;;;;;22.35;56.92;99965.63;5093523;28;20040;-79
2023/07/11 02:12:05;;;;;;;3.78;1.40;;;;;;;22.34;57.17;99955.91;5093366;28;20044;-79
2023/07/11 02:14:31;;;;;;;7.35;1.90;;;;;;;22.35;57.24;99956.75;5099004;28;20171;-80
2023/07/11 02:16:58;;;;;;;4.63;1.60;;;;;;;22.33;57.13;99954.22;5108653;28;20484;-79
2023/07/11 02:19:25;;;;;;;4.55;1.70;;;;;;;22.32;57.14;99949.00;5095302;28;20048;-79
2023/07/11 02:21:52;;;;;;;3.15;1.42;;;;;;;22.30;57.12;99949.16;5091900;28;20548;-79
2023/07/11 02:24:19;;;;;;;7.28;1.98;;;;;;;22.30;57.27;99942.97;5095478;28;20047;-79
2023/07/11 02:26:47;;;;;;;3.83;1.73;;;;;;;22.28;56.85;99950.34;5113239;28;20048;-80
2023/07/11 02:29:14;;;;;;;4.55;1.83;;;;;;;22.28;57.13;99948.50;5113664;28;20043;-80
2023/07/11 02:31:40;;;;;;;7.93;2.05;;;;;;;22.26;56.70;99940.63;5113582;28;20078;-80
2023/07/11 02:34:07;;;;;;;6.38;2.25;;;;;;;22.26;56.78;99935.25;5113452;28;20043;-80
2023/07/11 02:36:34;;;;;;;5.05;1.60;;;;;;;22.26;56.73;99929.03;5095013;28;20067;-80
2023/07/11 02:39:01;;;;;;;3.70;1.58;;;;;;;22.25;56.62;99925.50;5113250;28;20578;-80
2023/07/11 02:41:28;;;;;;;6.70;2.22;;;;;;;22.23;56.84;99924.84;5111964;28;20046;-80
2023/07/11 02:43:55;;;;;;;3.92;1.70;;;;;;;22.23;56.75;99924.84;5113217;28;20471;-80
2023/07/11 02:46:22;;;;;;;7.25;2.10;;;;;;;22.22;57.05;99927.69;5097282;28;20058;-80
2023/07/11 02:48:49;;;;;;;3.97;1.90;;;;;;;22.21;56.52;99926.81;5092564;28;20127;-80
2023/07/11 02:51:16;;;;;;;4.53;1.98;;;;;;;22.21;56.67;99921.47;5092755;28;20048;-80
2023/07/11 02:53:42;;;;;;;5.78;2.17;;;;;;;22.19;57.01;99918.13;5092704;28;20059;-80
2023/07/11 02:56:09;;;;;;;2.97;1.70;;;;;;;22.19;57.22;99912.75;5100874;28;20039;-80
2023/07/11 02:58:36;;;;;;;4.90;1.73;;;;;;;22.19;56.98;99918.13;5112620;28;20368;-80
2023/07/11 03:01:03;;;;;;;4.80;2.22;;;;;;;22.18;56.84;99910.22;5112583;28;20146;-80
2023/07/11 03:03:31;;;;;;;6.63;1.75;;;;;;;22.17;56.96;99896.00;5112961;28;20073;-80
2023/07/11 03:05:58;;;;;;;5.07;1.67;;;;;;;22.17;57.12;99908.56;5111325;28;20483;-79
2023/07/11 03:08:25;;;;;;;5.60;2.10;;;;;;;22.16;56.72;99910.38;5111350;28;20059;-80
2023/07/11 03:10:55;;;;;;;3.35;1.50;;;;;;;22.17;56.76;99900.50;5109993;28;20052;-80
2023/07/11 03:13:22;;;;;;;3.15;1.58;;;;;;;22.17;56.84;99895.16;5112905;28;20039;-79
2023/07/11 03:15:49;;;;;;;3.55;1.52;;;;;;;22.17;57.05;99896.00;5112788;28;20550;-81
2023/07/11 03:18:15;;;;;;;3.83;1.60;;;;;;;22.19;56.97;99895.81;5112479;28;20054;-79
2023/07/11 03:20:43;;;;;;;3.28;1.63;;;;;;;22.20;56.88;99886.78;5101288;28;20052;-80
2023/07/11 03:23:13;;;;;;;4.85;1.60;;;;;;;22.20;56.71;99889.47;5091894;28;20051;-80
2023/07/11 03:25:41;;;;;;;5.10;1.88;;;;;;;22.21;56.36;99881.25;5092132;28;20039;-80
2023/07/11 03:28:08;;;;;;;3.40;1.60;;;;;;;22.21;56.83;99877.75;5091951;28;20059;-81
2023/07/11 03:30:36;;;;;;;4.13;1.65;;;;;;;22.21;56.58;99878.56;5098870;28;20089;-79
2023/07/11 03:33:03;;;;;;;5.63;1.85;;;;;;;22.22;56.67;99872.22;5111884;28;20055;-80
2023/07/11 03:35:31;;;;;;;3.15;1.60;;;;;;;22.23;56.78;99867.69;5111848;28;20483;-80
2023/07/11 03:37:57;;;;;;;4.47;1.65;;;;;;;22.23;56.35;99860.50;5111227;28;20062;-80
2023/07/11 03:40:24;;;;;;;5.65;2.08;;;;;;;22.23;56.70;99863.16;5107876;28;20078;-80
2023/07/11 03:42:52;;;;;;;4.32;1.70;;;;;;;22.25;56.48;99863.00;5097841;28;20495;-80
2023/07/11 03:45:18;;;;;;;5.63;2.10;;;;;;;22.26;56.57;99859.31;5111672;28;20067;-80
2023/07/11 03:47:45;;;;;;;4.10;1.90;;;;;;;22.26;56.71;99857.50;5111953;28;20414;-80
2023/07/11 03:50:12;;;;;;;3.45;1.58;;;;;;;22.26;56.86;99859.31;5111874;28;20039;-80
2023/07/11 03:52:38;;;;;;;4.80;1.85;;;;;;;22.28;57.10;99856.50;5093281;28;20070;-80
2023/07/11 03:55:05;;;;;;;4.20;1.58;;;;;;;22.29;56.89;99850.13;5094671;28;20036;-80
2023/07/11 03:57:32;;;;;;;4.55;2.28;;;;;;;22.30;56.57;99854.47;5111477;28;20405;-80
2023/07/11 03:59:59;;;;;;;6.28;1.92;;;;;;;22.30;56.97;99843.75;5111978;27;20059;-81
2023/07/11 04:02:26;;;;;;;3.88;2.05;;;;;;;22.31;56.64;99846.25;5097436;27;20047;-79
2023/07/11 04:04:52;;;;;;;5.35;2.13;;;;;;;22.33;56.88;99851.47;5098728;28;20039;-79
2023/07/11 04:07:19;;;;;;;4.13;1.85;;;;;;;22.34;57.10;99842.41;5111789;28;20043;-79
2023/07/11 04:09:47;;;;;;;3.10;1.80;;;;;;;22.34;56.88;99842.41;5111627;28;20044;-80
2023/07/11 04:12:13;;;;;;;4.00;1.95;;;;;;;22.35;56.63;99838.75;5111764;28;20047;-79
2023/07/11 04:14:40;;;;;;;4.38;1.90;;;;;;;22.37;56.52;99834.06;5107503;28;20495;-81
2023/07/11 04:17:07;;;;;;;10.07;2.08;;;;;;;22.38;57.04;99836.59;5090914;28;20127;-80
2023/07/11 04:19:34;;;;;;;4.90;1.98;;;;;;;22.39;56.98;99832.88;5091087;28;20127;-79
2023/07/11 04:22:00;;;;;;;7.90;2.10;;;;;;;22.40;57.16;99833.75;5091264;28;20449;-80
2023/07/11 04:24:27;;;;;;;4.25;2.03;;;;;;;22.41;57.00;99831.88;5091074;28;20044;-79
2023/07/11 04:26:54;;;;;;;3.55;1.67;;;;;;;22.43;57.01;99829.88;5108933;28;20092;-79
2023/07/11 04:29:20;;;;;;;4.18;2.10;;;;;;;22.45;56.76;99833.22;5111341;28;20043;-81
2023/07/11 04:31:47;;;;;;;5.22;2.10;;;;;;;22.46;57.05;99826.88;5108042;28;20130;-79
2023/07/11 04:34:13;;;;;;;4.80;2.40;;;;;;;22.47;57.26;99828.56;5091135;28;20068;-80
2023/07/11 04:36:40;;;;;;;6.78;2.17;;;;;;;22.48;56.79;99833.75;5090662;28;20109;-80
2023/07/11 04:39:07;;;;;;;2.70;1.90;;;;;;;22.49;56.96;99829.22;5090939;28;20043;-80
2023/07/11 04:41:33;;;;;;;3.70;2.10;;;;;;;22.50;56.99;99831.75;5090922;28;20365;-80
2023/07/11 04:44:00;;;;;;;3.70;2.08;;;;;;;22.50;56.97;99826.38;5109381;28;20163;-80
2023/07/11 04:46:27;;;;;;;3.83;1.95;;;;;;;22.52;56.67;99823.53;5110887;28;20552;-79
2023/07/11 04:48:53;;;;;;;4.95;2.20;;;;;;;22.54;56.76;99812.66;5111240;28;20051;-79
2023/07/11 04:51:20;;;;;;;4.55;1.88;;;;;;;22.56;57.08;99816.03;5111234;28;20039;-80
2023/07/11 04:53:47;;;;;;;3.60;2.00;;;;;;;22.56;57.04;99814.19;5096772;28;20105;-80
2023/07/11 04:56:14;;;;;;;5.05;2.03;;;;;;;22.59;57.03;99813.88;5089380;28;20039;-80
2023/07/11 04:58:40;;;;;;;5.95;2.10;;;;;;;22.61;57.05;99816.38;5089191;28;20068;-80
2023/07/11 05:01:12;;;;;;;4.18;2.38;;;;;;;22.62;57.07;99810.00;5110909;28;20702;-80
2023/07/11 05:03:40;;;;;;;4.85;2.30;;;;;;;22.65;57.04;99810.50;5111129;28;20047;-80
2023/07/11 05:06:08;;;;;;;5.30;2.30;;;;;;;22.68;56.87;99809.34;5111000;28;20048;-80
2023/07/11 05:08:36;;;;;;;5.68;2.35;;;;;;;22.70;56.90;99803.81;5110829;28;20044;-79
2023/07/11 05:11:05;;;;;;;5.05;2.17;;;;;;;22.71;56.49;99803.66;5112972;28;20043;-79
2023/07/11 05:13:33;;;;;;;3.92;2.13;;;;;;;22.74;57.07;99797.97;5114978;28;20047;-80
2023/07/11 05:16:08;;;;;;;4.32;2.20;;;;;;;22.74;55.77;99803.31;5112751;27;20130;-79
2023/07/11 05:18:40;;;;;;;4.90;2.25;;;;;;;22.81;56.79;99803.50;5113408;28;20058;-80
2023/07/11 05:21:12;;;;;;;5.18;2.08;;;;;;;22.84;56.62;99808.50;5114908;28;20087;-80
2023/07/11 05:23:39;;;;;;;7.97;2.47;;;;;;;22.87;56.69;99801.97;5114791;28;20083;-80
2023/07/11 05:26:07;;;;;;;5.00;2.20;;;;;;;22.90;56.46;99804.31;5114478;27;20054;-80
2023/07/11 05:28:34;;;;;;;4.43;2.22;;;;;;;22.91;56.47;99801.47;5114696;28;20101;-80
2023/07/11 05:31:03;;;;;;;3.33;2.03;;;;;;;22.94;56.42;99799.47;5113512;28;20096;-79
2023/07/11 05:33:30;;;;;;;4.57;2.17;;;;;;;22.97;56.72;99797.28;5112745;27;20424;-79
2023/07/11 05:38:48;;;;;;;8.50;1.98;;;;;;;23.04;56.38;99794.78;5114355;28;20483;-80
2023/07/11 05:41:15;;;;;;;4.45;2.33;;;;;;;23.07;56.47;99796.28;5114950;28;20052;-80
2023/07/11 05:43:41;;;;;;;6.20;2.35;;;;;;;23.10;56.85;99801.31;5164261;22;20583;-80
2023/07/11 05:46:08;;;;;;;5.75;2.40;;;;;;;23.11;56.39;99782.34;5093737;28;20387;-80
2023/07/11 05:48:35;;;;;;;4.38;2.17;;;;;;;23.15;56.75;99789.06;5093939;28;20084;-81
2023/07/11 05:51:07;;;;;;;3.05;1.92;;;;;;;23.17;55.32;99786.19;5091789;28;20054;-80
2023/07/11 05:53:34;;;;;;;3.63;2.20;;;;;;;23.23;56.82;99785.53;5093914;28;20106;-81
2023/07/11 05:56:01;;;;;;;3.70;2.10;;;;;;;23.28;56.79;99779.63;5093395;28;20113;-80
2023/07/11 05:58:30;;;;;;;6.78;2.08;;;;;;;23.30;56.32;99780.31;5093024;28;20048;-80
2023/07/11 06:00:57;;;;;;;2.83;1.63;;;;;;;23.35;56.60;99774.44;5091349;28;20083;-79
2023/07/11 06:03:30;;;;;;;7.15;2.45;;;;;;;23.38;56.65;99768.72;5084402;28;20054;-79
2023/07/11 06:06:04;;;;;;;4.10;2.35;;;;;;;23.40;55.68;99772.91;5071898;28;20044;-81
2023/07/11 06:08:32;;;;;;;5.35;2.25;;;;;;;23.48;56.35;99771.25;5072943;28;20500;-81
2023/07/11 06:11:01;;;;;;;5.78;2.70;;;;;;;23.50;56.60;99763.84;5091045;28;20097;-81
2023/07/11 06:13:29;;;;;;;4.07;2.10;;;;;;;23.54;56.61;99765.16;5093608;28;20044;-80
2023/07/11 06:16:10;;;;;;;4.88;2.40;;;;;;;23.54;55.34;99760.63;5089850;28;20415;-80
2023/07/11 06:18:38;;;;;;;3.25;2.00;;;;;;;23.61;56.53;99760.78;5073082;28;20066;-80
2023/07/11 06:21:06;;;;;;;5.38;2.60;;;;;;;23.65;56.13;99761.25;5072786;28;20044;-80
2023/07/11 06:23:33;;;;;;;4.68;2.30;;;;;;;23.69;55.98;99759.91;5072861;28;20048;-79
2023/07/11 06:26:00;;;;;;;5.80;2.33;;;;;;;23.71;56.07;99752.53;5073116;28;20056;-80
2023/07/11 06:28:27;;;;;;;4.25;2.40;;;;;;;23.75;56.28;99750.31;5072927;28;20049;-81
2023/07/11 06:31:00;;;;;;;3.42;2.10;;;;;;;23.76;55.22;99749.31;5072802;28;20087;-79
2023/07/11 06:33:28;;;;;;;4.80;2.30;;;;;;;23.81;56.33;99737.00;5072810;28;20079;-80
2023/07/11 06:35:55;;;;;;;4.22;2.22;;;;;;;23.85;56.15;99742.88;5072444;28;20749;-79
2023/07/11 06:38:22;;;;;;;3.08;2.22;;;;;;;23.88;56.09;99744.41;5072511;28;20553;-80
2023/07/11 06:40:51;;;;;;;3.90;2.15;;;;;;;23.91;55.77;99736.81;5072553;28;20488;-79
2023/07/11 06:43:18;;;;;;;8.63;2.35;;;;;;;23.95;55.82;99730.06;5072617;28;20133;-80
2023/07/11 06:45:46;;;;;;;5.57;2.20;;;;;;;23.97;55.99;99737.97;5072749;28;20068;-79
2023/07/11 06:48:14;;;;;;;7.82;2.38;;;;;;;24.01;55.99;99725.84;5072343;28;20067;-80
2023/07/11 06:50:41;;;;;;;4.00;1.98;;;;;;;24.04;55.59;99728.16;5072214;28;20057;-79
2023/07/11 06:53:08;;;;;;;5.40;2.65;;;;;;;24.08;56.46;99732.16;5088513;28;20048;-80
2023/07/11 06:55:35;;;;;;;3.58;2.38;;;;;;;24.13;55.94;99720.94;5076110;28;20128;-80
2023/07/11 06:58:01;;;;;;;6.75;2.47;;;;;;;24.17;56.24;99727.63;5092456;28;20139;-79
2023/07/11 07:00:28;;;;;;;6.97;2.22;;;;;;;24.22;56.45;99719.00;5077033;28;20056;-79
2023/07/11 07:02:54;;;;;;;2.90;2.10;;;;;;;24.27;55.90;99705.88;5071877;28;20083;-80
2023/07/11 07:05:21;;;;;;;3.70;2.33;;;;;;;24.31;56.15;99717.97;5070911;28;20456;-80
2023/07/11 07:07:48;;;;;;;6.90;2.25;;;;;;;24.37;55.78;99712.88;5071563;28;20629;-79
2023/07/11 07:10:26;;;;;;;4.70;2.20;;;;;;;24.44;56.09;99709.28;5072037;28;20492;-81
2023/07/11 07:12:53;;;;;;;4.68;2.70;;;;;;;24.51;56.21;99713.97;5072242;28;20091;-80
2023/07/11 07:15:19;;;;;;;4.40;2.53;;;;;;;24.56;55.68;99715.06;5072170;28;20048;-79
2023/07/11 07:17:46;;;;;;;4.05;2.58;;;;;;;24.62;56.08;99708.13;5071796;28;20052;-79
2023/07/11 07:20:13;;;;;;;3.60;2.70;;;;;;;24.68;55.60;99696.66;5071937;28;20136;-79
2023/07/11 07:22:39;;;;;;;5.72;2.58;;;;;;;24.73;55.80;99693.41;5071950;28;20052;-80
2023/07/11 07:25:06;;;;;;;3.83;2.30;;;;;;;24.80;55.49;99699.75;5071425;28;20139;-81
2023/07/11 07:27:49;;;;;;;4.90;2.30;;;;;;;24.88;55.83;99701.53;5071723;28;20424;-79
2023/07/11 07:30:15;;;;;;;4.30;1.95;;;;;;;24.95;55.65;99701.63;5081720;28;20540;-80
2023/07/11 07:32:42;;;;;;;3.00;1.92;;;;;;;25.03;55.52;99698.03;5071188;28;20049;-79
2023/07/11 07:35:09;;;;;;;5.22;2.13;;;;;;;25.09;55.31;99698.13;5085871;28;20047;-79
2023/07/11 07:37:36;;;;;;;6.55;2.35;;;;;;;25.15;55.06;99699.25;5091656;28;20159;-79
2023/07/11 07:40:03;;;;;;;2.80;2.05;;;;;;;25.21;55.50;99695.81;5091742;28;20051;-80
2023/07/11 07:42:29;;;;;;;4.20;2.47;;;;;;;25.29;55.52;99696.72;5085849;28;20049;-79
2023/07/11 07:44:56;;;;;;;4.60;2.20;;;;;;;25.35;55.34;99693.31;5073863;28;20688;-79
2023/07/11 07:47:23;;;;;;;5.28;2.58;;;;;;;25.41;55.57;99680.97;5070909;28;20044;-80
2023/07/11 07:49:49;;;;;;;4.63;2.42;;;;;;;25.47;54.62;99681.03;5077652;28;20150;-79
2023/07/11 07:52:22;;;;;;;4.88;2.22;;;;;;;25.55;54.97;99676.56;5090728;28;20052;-79
2023/07/11 07:54:49;;;;;;;4.05;2.47;;;;;;;25.61;55.18;99676.66;5090505;28;20100;-80
2023/07/11 07:57:15;;;;;;;4.28;2.30;;;;;;;25.67;54.93;99675.06;5091231;28;20097;-81
2023/07/11 07:59:42;;;;;;;2.90;1.98;;;;;;;25.75;54.62;99674.13;5090759;28;20500;-82
2023/07/11 08:02:09;;;;;;;3.38;2.10;;;;;;;25.83;54.02;99679.41;5091614;28;20044;-82
2023/07/11 08:04:36;;;;;;;3.47;2.25;;;;;;;25.90;54.35;99671.38;5091209;28;20086;-82
2023/07/11 08:07:03;;;;;;;3.75;1.85;;;;;;;25.97;54.80;99660.66;5086155;28;20135;-83
2023/07/11 08:09:30;;;;;;;5.20;2.08;;;;;;;26.04;54.11;99663.47;5070906;28;20492;-83
2023/07/11 08:12:05;;;;;;;3.30;2.30;;;;;;;26.10;53.28;99666.22;5070825;28;20049;-83
2023/07/11 08:14:35;;;;;;;4.65;2.10;;;;;;;26.20;53.13;99660.50;5071134;28;20409;-82
2023/07/11 08:17:02;;;;;;;5.00;1.98;;;;;;;26.32;53.99;99662.72;5070562;28;20090;-82
2023/07/11 08:19:29;;;;;;;2.65;1.88;;;;;;;26.41;53.66;99666.94;5070801;28;20425;-82
2023/07/11 08:21:55;;;;;;;2.50;2.15;;;;;;;26.49;53.46;99658.72;5069620;28;20051;-82
2023/07/11 08:24:22;;;;;;;5.13;2.22;;;;;;;26.59;53.51;99652.13;5071786;28;20106;-82
2023/07/11 08:26:50;;;;;;;5.50;2.08;;;;;;;26.67;53.06;99647.44;5079207;28;20098;-83
2023/07/11 08:29:18;;;;;;;3.40;2.17;;;;;;;26.78;52.89;99645.22;5091044;28;20184;-83
2023/07/11 08:31:56;;;;;;;3.08;2.00;;;;;;;26.88;52.80;99639.47;5090861;28;20086;-82
2023/07/11 08:34:23;;;;;;;3.72;2.30;;;;;;;26.97;52.54;99645.56;5090836;28;20153;-82
2023/07/11 08:36:49;;;;;;;2.28;2.08;;;;;;;27.06;52.26;99641.69;5090409;28;20109;-84
2023/07/11 08:39:16;;;;;;;4.05;2.20;;;;;;;27.14;52.76;99633.41;5090952;28;20058;-82
2023/07/11 08:41:43;;;;;;;2.55;1.83;;;;;;;27.25;52.19;99642.00;5088452;28;20044;-83
2023/07/11 08:44:21;;;;;;;4.78;2.05;;;;;;;27.31;50.34;99633.06;5090409;28;20511;-84
2023/07/11 08:46:56;;;;;;;4.40;2.00;;;;;;;27.39;50.22;99630.19;5090292;28;20084;-83
2023/07/11 08:49:41;;;;;;;4.82;2.35;;;;;;;27.50;51.23;99625.25;5090691;28;20052;-82
2023/07/11 08:52:09;;;;;;;6.50;1.92;;;;;;;27.63;52.25;99614.53;5090473;28;20048;-83
2023/07/11 08:55:00;;;;;;;2.95;2.10;;;;;;;27.69;50.62;99618.25;5089423;28;20056;-84
2023/07/11 08:57:29;;;;;;;3.22;1.83;;;;;;;27.85;50.32;99614.38;5090540;28;20047;-82
2023/07/11 09:00:06;;;;;;;2.75;2.20;;;;;;;27.94;49.10;99617.69;5081375;28;20058;-85
2023/07/11 09:02:38;;;;;;;7.68;1.90;;;;;;;28.06;49.13;99617.91;5070671;28;20048;-83
2023/07/11 09:05:12;;;;;;;5.22;2.03;;;;;;;28.17;48.39;99609.19;5068915;28;20052;-82
2023/07/11 09:07:42;;;;;;;2.13;1.70;;;;;;;28.27;49.21;99607.97;5068993;28;20106;-83
2023/07/11 09:10:44;;;;;;;5.53;2.00;;;;;;;28.31;48.30;99601.94;5070112;28;20061;-83
2023/07/11 09:13:29;;;;;;;3.83;1.90;;;;;;;28.44;47.94;99606.50;5070346;28;20079;-83
2023/07/11 09:16:10;;;;;;;4.90;2.13;;;;;;;28.55;48.96;99604.22;5071155;28;20047;-83
2023/07/11 09:19:07;;;;;;;3.35;1.88;;;;;;;28.57;47.25;99596.69;5088448;28;20082;-84
2023/07/11 09:21:57;;;;;;;3.25;1.80;;;;;;;28.64;45.55;99594.81;5090375;28;20052;-84
2023/07/11 09:24:41;;;;;;;2.85;1.50;;;;;;;28.71;45.98;99592.09;5090293;28;20087;-83
2023/07/11 09:27:14;;;;;;;2.42;1.73;;;;;;;28.80;45.59;99589.97;5090339;28;20101;-83
2023/07/11 09:29:43;;;;;;;;;;;;;;;28.85;49.49;99587.47;5090981;28;20060;-83
2023/07/11 09:32:11;;;;;;;3.70;2.03;;;;;;;29.00;47.96;99590.78;5086867;28;19931;-84
2023/07/11 09:34:43;;;;;;;5.07;1.80;;;;;;;29.06;47.04;99582.84;5089868;28;20067;-83
2023/07/11 09:37:23;;;;;;;4.18;1.77;;;;;;;29.13;46.77;99589.94;5090352;28;20052;-83
2023/07/11 09:40:00;;;;;;;4.28;1.90;;;;;;;29.22;46.15;99584.25;5090407;28;20048;-83
2023/07/11 09:42:59;;;;;;;3.88;1.83;;;;;;;29.31;47.34;99582.13;5090098;28;20048;-83
2023/07/11 09:45:35;;;;;;;3.88;2.20;;;;;;;29.41;45.41;99582.47;5055576;28;20050;-81
2023/07/11 09:48:07;;;;;;;2.58;1.80;;;;;;;29.51;44.75;99563.03;5089819;28;20048;-81
2023/07/11 09:50:43;;;;;;;3.53;1.90;;;;;;;29.59;45.15;99575.53;5088193;28;20106;-82
2023/07/11 09:53:29;;;;;;;;;;;;;;;29.66;44.04;99570.91;5087084;28;20143;-83
2023/07/11 09:56:00;;;;;;;2.78;1.73;;;;;;;29.81;45.47;99567.03;5090560;28;19927;-82
2023/07/11 09:58:40;;;;;;;5.45;1.83;;;;;;;29.90;46.75;99568.47;5092108;28;20048;-83
2023/07/11 10:01:18;;;;;;;3.17;1.60;;;;;;;29.93;43.29;99570.72;5093466;28;20565;-82
2023/07/11 10:03:47;;;;;;;3.72;1.70;;;;;;;30.03;45.53;99565.63;5093652;28;20073;-83
2023/07/11 10:06:29;;;;;;;5.95;2.08;;;;;;;30.08;45.28;99550.56;5093297;28;20055;-82
2023/07/11 10:09:43;;;;;;;3.38;2.15;;;;;;;30.21;45.52;99555.91;5090687;28;20417;-82
2023/07/11 10:12:16;;;;;;;3.35;1.80;;;;;;;30.35;43.27;99547.63;5069285;28;20048;-83
2023/07/11 10:14:44;;;;;;;;;;;;;;;30.40;46.90;99542.38;5073525;28;20048;-82
2023/07/11 10:17:26;;;;;;;5.65;1.80;;;;;;;30.52;43.51;99540.56;5071704;28;19971;-82
2023/07/11 10:19:57;;;;;;;;;;;;;;;30.58;47.55;99538.84;5073656;28;20055;-82
2023/07/11 10:22:46;;;;;;;1.85;1.50;;;;;;;30.74;46.15;99539.31;5073348;28;19924;-83
2023/07/11 10:25:21;;;;;;;4.68;1.80;;;;;;;30.78;44.15;99526.94;5073882;28;20055;-83
2023/07/11 10:27:57;;;;;;;2.40;1.80;;;;;;;30.85;43.53;99535.00;5072274;28;20045;-83
2023/07/11 10:30:28;;;;;;;2.53;1.70;;;;;;;30.93;44.35;99529.25;5071954;28;20055;-82
2023/07/11 10:33:28;;;;;;;5.60;2.10;;;;;;;30.97;43.86;99526.91;5072703;28;20067;-83
2023/07/11 10:36:46;;;;;;;3.15;1.70;;;;;;;31.07;43.68;99524.50;5072901;28;20048;-83
2023/07/11 10:39:28;;;;;;;2.95;1.85;;;;;;;31.18;42.54;99514.72;5071510;28;20048;-82
2023/07/11 10:42:05;;;;;;;5.20;1.95;;;;;;;31.21;42.46;99515.09;5072692;28;20063;-82
2023/07/11 10:44:40;;;;;;;3.92;1.88;;;;;;;31.24;42.56;99516.53;5073831;28;20106;-83
2023/07/11 10:47:09;;;;;;;2.63;1.50;;;;;;;31.30;44.06;99510.16;5072768;28;20127;-83
2023/07/11 10:49:47;;;;;;;3.28;1.80;;;;;;;31.33;42.11;99504.28;5078358;28;20056;-83
2023/07/11 10:52:23;;;;;;;2.80;1.88;;;;;;;31.49;42.01;99514.72;5091253;28;20147;-83
2023/07/11 10:54:59;;;;;;;2.97;1.77;;;;;;;31.67;41.74;99502.94;5092669;28;20056;-84
2023/07/11 10:57:38;;;;;;;3.55;1.80;;;;;;;31.95;42.88;99496.06;5092619;28;20044;-82
2023/07/11 11:00:26;;;;;;;3.25;2.00;;;;;;;32.23;40.41;99491.78;5092528;28;20415;-83
2023/07/11 11:03:04;;;;;;;3.30;1.60;;;;;;;32.47;40.17;99498.03;5091338;28;20056;-84
2023/07/11 11:05:53;;;;;;;7.05;1.73;;;;;;;32.65;40.13;99501.69;5091930;28;20097;-83
2023/07/11 11:08:35;;;;;;;3.90;1.75;;;;;;;32.80;39.71;99495.72;5092178;28;20048;-83
2023/07/11 11:11:23;;;;;;;4.32;1.90;;;;;;;32.88;40.16;99492.59;5090426;28;20044;-83
2023/07/11 11:14:22;;;;;;;2.72;1.75;;;;;;;32.96;40.24;99480.47;5075914;28;20071;-83
2023/07/11 11:17:19;;;;;;;3.92;1.80;;;;;;;33.06;39.62;99476.31;5089868;28;20048;-83
2023/07/11 11:24:07;;;;;;;3.17;1.65;;;;;;;33.34;40.84;99469.19;5071805;28;20047;-84
2023/07/11 11:26:55;;;;;;;4.65;1.75;;;;;;;33.55;40.43;99467.66;5071447;28;20049;-83
2023/07/11 11:29:37;;;;;;;6.00;1.98;;;;;;;33.84;40.45;99466.75;5083047;28;20085;-83
2023/07/11 11:32:10;;;;;;;2.92;1.67;;;;;;;34.14;40.29;99465.56;5091560;28;20040;-83
2023/07/11 11:34:54;;;;;;;3.50;1.73;;;;;;;34.35;39.67;99468.56;5091427;28;20559;-83
2023/07/11 11:37:58;;;;;;;3.65;1.77;;;;;;;34.56;39.16;99459.56;5091742;28;20048;-83
2023/07/11 11:40:28;;;;;;;2.38;1.67;;;;;;;34.73;39.53;99466.88;5073977;28;20041;-83
2023/07/11 11:45:27;;;;;;;8.43;2.00;;;;;;;35.04;38.26;99464.47;5129382;22;20051;-80
2023/07/11 11:48:24;;;;;;;2.85;1.50;;;;;;;35.28;34.94;99452.41;5111907;28;20047;-79
2023/07/11 11:50:56;;;;;;;2.83;1.50;;;;;;;35.58;38.93;99456.50;5111254;28;20096;-79
2023/07/11 11:53:44;;;;;;;2.67;1.67;;;;;;;35.92;37.58;99458.97;5112058;28;20772;-80
2023/07/11 11:56:15;;;;;;;4.70;1.70;;;;;;;36.20;36.08;99454.19;5111914;28;20047;-81
2023/07/11 11:58:57;;;;;;;2.50;1.58;;;;;;;36.46;34.99;99462.53;5111557;28;20130;-79
2023/07/11 12:01:47;;;;;;;3.83;1.80;;;;;;;36.60;35.34;99454.66;5091247;28;20087;-82